sensor_id;sensor_type;location;lat;lon;timestamp;pressure;altitude;pressure_sealevel;temperature;humidity
46876;BME280;32866;50.160;14.768;2023-02-10T00:01:22;101146.69;;;-5.88;100.00
46876;BME280;32866;50.160;14.768;2023-02-10T00:03:48;101111.16;;;-6.08;100.00
46876;BME280;32866;50.160;14.768;2023-02-10T00:06:14;101137.59;;;-5.87;100.00
46876;BME280;32866;50.160;14.768;2023-02-10T00:08:40;101128.03;;;-6.12;100.00
46876;BME280;32866;50.160;14.768;2023-02-10T00:11:08;101146.75;;;-5.93;100.00
46876;BME280;32866;50.160;14.768;2023-02-10T00:13:36;101095.31;;;-6.23;100.00
46876;BME280;32866;50.160;14.768;2023-02-10T00:16:03;101143.78;;;-5.92;100.00
46876;BME280;32866;50.160;14.768;2023-02-10T00:18:29;101100.13;;;-6.25;100.00
46876;BME280;32866;50.160;14.768;2023-02-10T00:20:56;101111.72;;;-6.11;100.00
46876;BME280;32866;50.160;14.768;2023-02-10T00:23:21;101143.19;;;-6.08;100.00
46876;BME280;32866;50.160;14.768;2023-02-10T00:25:47;101119.34;;;-6.23;100.00
46876;BME280;32866;50.160;14.768;2023-02-10T00:28:12;101120.50;;;-6.35;100.00
46876;BME280;32866;50.160;14.768;2023-02-10T00:30:38;101111.22;;;-6.42;100.00
46876;BME280;32866;50.160;14.768;2023-02-10T00:33:04;101155.69;;;-6.32;100.00
46876;BME280;32866;50.160;14.768;2023-02-10T00:35:29;101101.03;;;-6.64;100.00
46876;BME280;32866;50.160;14.768;2023-02-10T00:37:55;101103.59;;;-6.54;100.00
46876;BME280;32866;50.160;14.768;2023-02-10T00:40:21;101145.53;;;-6.30;100.00
46876;BME280;32866;50.160;14.768;2023-02-10T00:42:46;101139.53;;;-6.17;100.00
46876;BME280;32866;50.160;14.768;2023-02-10T00:45:11;101152.72;;;-6.60;100.00
46876;BME280;32866;50.160;14.768;2023-02-10T00:47:38;101106.84;;;-6.92;100.00
46876;BME280;32866;50.160;14.768;2023-02-10T00:50:04;101144.38;;;-6.83;100.00
46876;BME280;32866;50.160;14.768;2023-02-10T00:52:29;101105.41;;;-7.13;100.00
46876;BME280;32866;50.160;14.768;2023-02-10T00:54:55;101116.22;;;-6.99;100.00
46876;BME280;32866;50.160;14.768;2023-02-10T00:57:20;101135.81;;;-6.80;100.00
46876;BME280;32866;50.160;14.768;2023-02-10T00:59:45;101113.88;;;-7.06;100.00
46876;BME280;32866;50.160;14.768;2023-02-10T01:02:11;101117.00;;;-6.99;100.00
46876;BME280;32866;50.160;14.768;2023-02-10T01:04:37;101129.56;;;-6.65;100.00
46876;BME280;32866;50.160;14.768;2023-02-10T01:07:02;101113.06;;;-7.01;100.00
46876;BME280;32866;50.160;14.768;2023-02-10T01:09:28;101082.03;;;-6.92;100.00
46876;BME280;32866;50.160;14.768;2023-02-10T01:11:53;101101.28;;;-6.95;100.00
46876;BME280;32866;50.160;14.768;2023-02-10T01:14:19;101100.81;;;-7.07;100.00
46876;BME280;32866;50.160;14.768;2023-02-10T01:16:44;101129.41;;;-6.79;100.00
46876;BME280;32866;50.160;14.768;2023-02-10T01:19:10;101081.72;;;-7.20;100.00
46876;BME280;32866;50.160;14.768;2023-02-10T01:21:36;101116.94;;;-6.83;100.00
46876;BME280;32866;50.160;14.768;2023-02-10T01:24:04;101109.91;;;-6.74;100.00
46876;BME280;32866;50.160;14.768;2023-02-10T01:26:30;101079.72;;;-7.04;100.00
46876;BME280;32866;50.160;14.768;2023-02-10T01:28:55;101062.97;;;-7.04;100.00
46876;BME280;32866;50.160;14.768;2023-02-10T01:31:21;101095.75;;;-6.69;100.00
46876;BME280;32866;50.160;14.768;2023-02-10T01:33:47;101108.56;;;-6.72;100.00
46876;BME280;32866;50.160;14.768;2023-02-10T01:36:16;101095.41;;;-6.97;100.00
46876;BME280;32866;50.160;14.768;2023-02-10T01:38:42;101107.50;;;-6.76;100.00
46876;BME280;32866;50.160;14.768;2023-02-10T01:41:08;101114.44;;;-6.75;100.00
46876;BME280;32866;50.160;14.768;2023-02-10T01:43:52;101114.91;;;-6.67;100.00
46876;BME280;32866;50.160;14.768;2023-02-10T01:46:18;101118.09;;;-6.65;100.00
46876;BME280;32866;50.160;14.768;2023-02-10T01:48:43;101091.22;;;-7.03;100.00
46876;BME280;32866;50.160;14.768;2023-02-10T01:51:09;101095.56;;;-7.18;100.00
46876;BME280;32866;50.160;14.768;2023-02-10T01:53:34;101122.72;;;-7.16;100.00
46876;BME280;32866;50.160;14.768;2023-02-10T01:56:01;101125.28;;;-7.40;100.00
46876;BME280;32866;50.160;14.768;2023-02-10T01:58:32;101066.06;;;-7.76;100.00
46876;BME280;32866;50.160;14.768;2023-02-10T02:00:59;101112.25;;;-7.47;100.00
46876;BME280;32866;50.160;14.768;2023-02-10T02:03:25;101132.94;;;-7.28;100.00
46876;BME280;32866;50.160;14.768;2023-02-10T02:05:51;101136.19;;;-7.36;100.00
46876;BME280;32866;50.160;14.768;2023-02-10T02:08:19;101129.28;;;-7.42;100.00
46876;BME280;32866;50.160;14.768;2023-02-10T02:27:15;101140.81;;;-7.57;100.00
46876;BME280;32866;50.160;14.768;2023-02-10T02:32:38;101126.34;;;-7.41;100.00
46876;BME280;32866;50.160;14.768;2023-02-10T02:35:09;101146.53;;;-7.30;100.00
46876;BME280;32866;50.160;14.768;2023-02-10T02:37:42;101129.66;;;-7.70;100.00
46876;BME280;32866;50.160;14.768;2023-02-10T02:40:08;101158.38;;;-7.56;100.00
46876;BME280;32866;50.160;14.768;2023-02-10T02:42:34;101148.81;;;-7.62;100.00
46876;BME280;32866;50.160;14.768;2023-02-10T02:45:08;101156.22;;;-7.54;100.00
46876;BME280;32866;50.160;14.768;2023-02-10T02:50:44;101159.09;;;-7.35;100.00
46876;BME280;32866;50.160;14.768;2023-02-10T02:56:20;101156.78;;;-7.07;100.00
46876;BME280;32866;50.160;14.768;2023-02-10T03:01:35;101126.00;;;-7.29;100.00
46876;BME280;32866;50.160;14.768;2023-02-10T03:04:02;101152.28;;;-7.07;100.00
46876;BME280;32866;50.160;14.768;2023-02-10T03:06:28;101138.13;;;-7.07;100.00
46876;BME280;32866;50.160;14.768;2023-02-10T03:08:54;101137.34;;;-7.08;100.00
46876;BME280;32866;50.160;14.768;2023-02-10T03:11:19;101136.22;;;-6.97;100.00
46876;BME280;32866;50.160;14.768;2023-02-10T03:13:45;101130.84;;;-6.92;100.00
46876;BME280;32866;50.160;14.768;2023-02-10T03:16:10;101142.69;;;-6.74;100.00
46876;BME280;32866;50.160;14.768;2023-02-10T03:18:35;101138.72;;;-6.76;100.00
46876;BME280;32866;50.160;14.768;2023-02-10T03:21:01;101131.00;;;-6.78;100.00
46876;BME280;32866;50.160;14.768;2023-02-10T03:23:26;101125.19;;;-6.85;100.00
46876;BME280;32866;50.160;14.768;2023-02-10T03:25:52;101169.13;;;-6.43;100.00
46876;BME280;32866;50.160;14.768;2023-02-10T03:28:17;101169.69;;;-6.46;100.00
46876;BME280;32866;50.160;14.768;2023-02-10T03:30:42;101164.50;;;-6.61;100.00
46876;BME280;32866;50.160;14.768;2023-02-10T03:33:13;101133.88;;;-7.03;100.00
46876;BME280;32866;50.160;14.768;2023-02-10T03:35:38;101152.53;;;-7.03;100.00
46876;BME280;32866;50.160;14.768;2023-02-10T03:38:05;101184.09;;;-6.81;100.00
46876;BME280;32866;50.160;14.768;2023-02-10T03:40:30;101182.28;;;-6.91;100.00
46876;BME280;32866;50.160;14.768;2023-02-10T03:42:56;101177.53;;;-6.99;100.00
46876;BME280;32866;50.160;14.768;2023-02-10T03:45:21;101198.03;;;-6.95;100.00
46876;BME280;32866;50.160;14.768;2023-02-10T03:47:46;101170.25;;;-7.28;100.00
46876;BME280;32866;50.160;14.768;2023-02-10T03:50:11;101192.09;;;-7.31;100.00
46876;BME280;32866;50.160;14.768;2023-02-10T03:52:37;101167.75;;;-7.64;100.00
46876;BME280;32866;50.160;14.768;2023-02-10T03:55:02;101199.56;;;-7.33;100.00
46876;BME280;32866;50.160;14.768;2023-02-10T03:57:27;101194.84;;;-7.47;100.00
46876;BME280;32866;50.160;14.768;2023-02-10T03:59:52;101207.63;;;-7.43;100.00
46876;BME280;32866;50.160;14.768;2023-02-10T04:02:18;101190.41;;;-7.72;100.00
46876;BME280;32866;50.160;14.768;2023-02-10T04:04:43;101194.38;;;-7.74;100.00
46876;BME280;32866;50.160;14.768;2023-02-10T04:07:08;101200.72;;;-7.55;100.00
46876;BME280;32866;50.160;14.768;2023-02-10T04:09:34;101205.03;;;-7.64;100.00
46876;BME280;32866;50.160;14.768;2023-02-10T04:11:59;101191.75;;;-7.85;100.00
46876;BME280;32866;50.160;14.768;2023-02-10T04:14:24;101205.81;;;-7.63;100.00
46876;BME280;32866;50.160;14.768;2023-02-10T04:16:50;101170.22;;;-7.93;100.00
46876;BME280;32866;50.160;14.768;2023-02-10T04:19:15;101206.63;;;-7.73;100.00
46876;BME280;32866;50.160;14.768;2023-02-10T04:21:40;101196.84;;;-7.93;100.00
46876;BME280;32866;50.160;14.768;2023-02-10T04:24:06;101173.97;;;-8.10;100.00
46876;BME280;32866;50.160;14.768;2023-02-10T04:26:31;101209.59;;;-7.85;100.00
46876;BME280;32866;50.160;14.768;2023-02-10T04:28:56;101203.47;;;-7.86;100.00
46876;BME280;32866;50.160;14.768;2023-02-10T04:31:21;101173.19;;;-8.10;100.00
46876;BME280;32866;50.160;14.768;2023-02-10T04:33:47;101214.13;;;-7.80;100.00
46876;BME280;32866;50.160;14.768;2023-02-10T04:36:12;101185.13;;;-7.97;100.00
46876;BME280;32866;50.160;14.768;2023-02-10T04:38:38;101207.22;;;-7.92;100.00
46876;BME280;32866;50.160;14.768;2023-02-10T04:41:03;101206.69;;;-7.94;100.00
46876;BME280;32866;50.160;14.768;2023-02-10T04:43:30;101208.53;;;-7.84;100.00
46876;BME280;32866;50.160;14.768;2023-02-10T04:45:55;101204.28;;;-7.95;100.00
46876;BME280;32866;50.160;14.768;2023-02-10T04:48:21;101218.88;;;-7.83;100.00
46876;BME280;32866;50.160;14.768;2023-02-10T04:50:47;101204.56;;;-7.92;100.00
46876;BME280;32866;50.160;14.768;2023-02-10T04:53:12;101221.03;;;-7.85;100.00
46876;BME280;32866;50.160;14.768;2023-02-10T04:55:38;101195.50;;;-8.06;100.00
46876;BME280;32866;50.160;14.768;2023-02-10T04:58:03;101220.47;;;-7.76;100.00
46876;BME280;32866;50.160;14.768;2023-02-10T05:00:29;101232.22;;;-7.77;100.00
46876;BME280;32866;50.160;14.768;2023-02-10T05:02:54;101222.66;;;-7.89;100.00
46876;BME280;32866;50.160;14.768;2023-02-10T05:05:19;101222.66;;;-7.94;100.00
46876;BME280;32866;50.160;14.768;2023-02-10T05:07:45;101226.63;;;-7.86;100.00
46876;BME280;32866;50.160;14.768;2023-02-10T05:10:10;101239.16;;;-7.87;100.00
46876;BME280;32866;50.160;14.768;2023-02-10T05:12:36;101239.13;;;-7.81;100.00
46876;BME280;32866;50.160;14.768;2023-02-10T05:15:01;101211.50;;;-8.11;100.00
46876;BME280;32866;50.160;14.768;2023-02-10T05:17:26;101236.22;;;-7.95;100.00
46876;BME280;32866;50.160;14.768;2023-02-10T05:19:52;101239.44;;;-7.98;100.00
46876;BME280;32866;50.160;14.768;2023-02-10T05:22:17;101235.44;;;-8.16;100.00
46876;BME280;32866;50.160;14.768;2023-02-10T05:24:42;101253.00;;;-8.05;100.00
46876;BME280;32866;50.160;14.768;2023-02-10T05:27:08;101229.88;;;-8.25;100.00
46876;BME280;32866;50.160;14.768;2023-02-10T05:29:33;101235.72;;;-8.28;100.00
46876;BME280;32866;50.160;14.768;2023-02-10T05:31:58;101263.91;;;-8.12;100.00
46876;BME280;32866;50.160;14.768;2023-02-10T05:34:24;101263.66;;;-8.05;100.00
46876;BME280;32866;50.160;14.768;2023-02-10T05:36:50;101234.38;;;-8.21;100.00
46876;BME280;32866;50.160;14.768;2023-02-10T05:39:16;101235.97;;;-8.20;100.00
46876;BME280;32866;50.160;14.768;2023-02-10T05:41:53;101261.53;;;-8.18;100.00
46876;BME280;32866;50.160;14.768;2023-02-10T05:44:18;101276.41;;;-7.81;100.00
46876;BME280;32866;50.160;14.768;2023-02-10T05:46:44;101283.88;;;-7.99;100.00
46876;BME280;32866;50.160;14.768;2023-02-10T05:49:09;101295.03;;;-7.87;100.00
46876;BME280;32866;50.160;14.768;2023-02-10T05:51:35;101267.91;;;-7.99;100.00
46876;BME280;32866;50.160;14.768;2023-02-10T05:54:00;101288.13;;;-7.77;100.00
46876;BME280;32866;50.160;14.768;2023-02-10T05:56:25;101276.38;;;-7.61;100.00
46876;BME280;32866;50.160;14.768;2023-02-10T05:58:50;101283.25;;;-7.39;100.00
46876;BME280;32866;50.160;14.768;2023-02-10T06:01:16;101262.50;;;-7.53;100.00
46876;BME280;32866;50.160;14.768;2023-02-10T06:03:41;101252.44;;;-7.76;100.00
46876;BME280;32866;50.160;14.768;2023-02-10T06:06:07;101285.94;;;-7.50;100.00
46876;BME280;32866;50.160;14.768;2023-02-10T06:08:32;101272.66;;;-7.60;100.00
46876;BME280;32866;50.160;14.768;2023-02-10T06:10:57;101262.25;;;-7.61;100.00
46876;BME280;32866;50.160;14.768;2023-02-10T06:13:23;101298.47;;;-7.45;100.00
46876;BME280;32866;50.160;14.768;2023-02-10T06:15:48;101285.97;;;-7.65;100.00
46876;BME280;32866;50.160;14.768;2023-02-10T06:18:13;101308.34;;;-7.76;100.00
46876;BME280;32866;50.160;14.768;2023-02-10T06:20:39;101284.94;;;-8.15;100.00
46876;BME280;32866;50.160;14.768;2023-02-10T06:23:04;101303.31;;;-8.14;100.00
46876;BME280;32866;50.160;14.768;2023-02-10T06:25:29;101305.19;;;-8.04;100.00
46876;BME280;32866;50.160;14.768;2023-02-10T06:27:55;101298.50;;;-7.81;100.00
46876;BME280;32866;50.160;14.768;2023-02-10T06:30:20;101288.09;;;-7.83;100.00
46876;BME280;32866;50.160;14.768;2023-02-10T06:32:45;101313.94;;;-7.52;100.00
46876;BME280;32866;50.160;14.768;2023-02-10T06:35:11;101287.00;;;-7.51;100.00
46876;BME280;32866;50.160;14.768;2023-02-10T06:37:37;101292.28;;;-7.30;100.00
46876;BME280;32866;50.160;14.768;2023-02-10T06:40:04;101313.53;;;-7.10;100.00
46876;BME280;32866;50.160;14.768;2023-02-10T06:42:29;101312.19;;;-7.12;100.00
46876;BME280;32866;50.160;14.768;2023-02-10T06:44:55;101286.66;;;-7.18;100.00
46876;BME280;32866;50.160;14.768;2023-02-10T06:47:20;101323.78;;;-6.77;100.00
46876;BME280;32866;50.160;14.768;2023-02-10T06:49:46;101323.28;;;-6.79;100.00
46876;BME280;32866;50.160;14.768;2023-02-10T06:52:11;101301.72;;;-6.88;100.00
46876;BME280;32866;50.160;14.768;2023-02-10T06:54:36;101332.75;;;-6.53;100.00
46876;BME280;32866;50.160;14.768;2023-02-10T06:57:02;101295.81;;;-6.80;100.00
46876;BME280;32866;50.160;14.768;2023-02-10T06:59:28;101282.97;;;-6.73;100.00
46876;BME280;32866;50.160;14.768;2023-02-10T07:01:53;101333.78;;;-6.43;100.00
46876;BME280;32866;50.160;14.768;2023-02-10T07:04:26;101327.84;;;-6.30;100.00
46876;BME280;32866;50.160;14.768;2023-02-10T07:06:51;101338.84;;;-6.02;100.00
46876;BME280;32866;50.160;14.768;2023-02-10T07:09:16;101336.19;;;-5.73;100.00
46876;BME280;32866;50.160;14.768;2023-02-10T07:11:42;101337.44;;;-5.36;100.00
46876;BME280;32866;50.160;14.768;2023-02-10T07:14:07;101303.81;;;-5.42;100.00
46876;BME280;32866;50.160;14.768;2023-02-10T07:16:33;101290.84;;;-5.30;100.00
46876;BME280;32866;50.160;14.768;2023-02-10T07:18:59;101350.34;;;-4.95;100.00
46876;BME280;32866;50.160;14.768;2023-02-10T07:21:24;101353.38;;;-4.77;100.00
46876;BME280;32866;50.160;14.768;2023-02-10T07:23:49;101345.16;;;-4.62;100.00
46876;BME280;32866;50.160;14.768;2023-02-10T07:26:15;101372.09;;;-4.15;100.00
46876;BME280;32866;50.160;14.768;2023-02-10T07:28:43;101354.84;;;-4.09;100.00
46876;BME280;32866;50.160;14.768;2023-02-10T07:31:09;101375.47;;;-3.91;100.00
46876;BME280;32866;50.160;14.768;2023-02-10T07:33:34;101370.38;;;-3.73;100.00
46876;BME280;32866;50.160;14.768;2023-02-10T07:36:00;101363.91;;;-3.72;100.00
46876;BME280;32866;50.160;14.768;2023-02-10T07:38:27;101364.56;;;-3.61;100.00
46876;BME280;32866;50.160;14.768;2023-02-10T07:40:53;101376.34;;;-3.29;100.00
46876;BME280;32866;50.160;14.768;2023-02-10T07:43:18;101354.69;;;-3.33;100.00
46876;BME280;32866;50.160;14.768;2023-02-10T07:45:43;101367.44;;;-3.11;100.00
46876;BME280;32866;50.160;14.768;2023-02-10T07:48:09;101338.91;;;-3.07;100.00
46876;BME280;32866;50.160;14.768;2023-02-10T07:50:35;101355.31;;;-2.81;100.00
46876;BME280;32866;50.160;14.768;2023-02-10T07:53:00;101377.56;;;-2.52;100.00
46876;BME280;32866;50.160;14.768;2023-02-10T07:55:26;101385.81;;;-2.90;100.00
46876;BME280;32866;50.160;14.768;2023-02-10T07:57:51;101394.94;;;-3.19;100.00
46876;BME280;32866;50.160;14.768;2023-02-10T08:00:18;101412.94;;;-3.06;100.00
46876;BME280;32866;50.160;14.768;2023-02-10T08:02:43;101407.28;;;-3.04;100.00
46876;BME280;32866;50.160;14.768;2023-02-10T08:05:08;101399.63;;;-2.97;100.00
46876;BME280;32866;50.160;14.768;2023-02-10T08:07:35;101410.56;;;-2.93;100.00
46876;BME280;32866;50.160;14.768;2023-02-10T08:10:01;101408.59;;;-2.74;100.00
46876;BME280;32866;50.160;14.768;2023-02-10T08:12:26;101403.81;;;-2.49;100.00
46876;BME280;32866;50.160;14.768;2023-02-10T08:14:51;101387.72;;;-2.63;100.00
46876;BME280;32866;50.160;14.768;2023-02-10T08:17:17;101404.16;;;-2.28;100.00
46876;BME280;32866;50.160;14.768;2023-02-10T08:19:42;101377.88;;;-2.17;100.00
46876;BME280;32866;50.160;14.768;2023-02-10T08:22:08;101396.81;;;-2.00;100.00
46876;BME280;32866;50.160;14.768;2023-02-10T08:24:34;101401.47;;;-1.92;100.00
46876;BME280;32866;50.160;14.768;2023-02-10T08:26:59;101400.63;;;-1.78;100.00
46876;BME280;32866;50.160;14.768;2023-02-10T08:29:25;101417.34;;;-1.67;100.00
46876;BME280;32866;50.160;14.768;2023-02-10T08:31:51;101410.59;;;-1.79;100.00
46876;BME280;32866;50.160;14.768;2023-02-10T08:34:19;101378.47;;;-1.84;100.00
46876;BME280;32866;50.160;14.768;2023-02-10T08:36:45;101370.34;;;-1.93;100.00
46876;BME280;32866;50.160;14.768;2023-02-10T08:39:12;101393.06;;;-1.76;100.00
46876;BME280;32866;50.160;14.768;2023-02-10T08:41:37;101384.31;;;-1.82;100.00
46876;BME280;32866;50.160;14.768;2023-02-10T08:44:03;101397.00;;;-1.51;100.00
46876;BME280;32866;50.160;14.768;2023-02-10T08:46:29;101374.44;;;-1.41;100.00
46876;BME280;32866;50.160;14.768;2023-02-10T08:48:54;101402.91;;;-1.18;100.00
46876;BME280;32866;50.160;14.768;2023-02-10T08:51:20;101408.22;;;-1.04;100.00
46876;BME280;32866;50.160;14.768;2023-02-10T08:53:45;101409.66;;;-0.89;100.00
46876;BME280;32866;50.160;14.768;2023-02-10T08:56:15;101397.34;;;-0.81;100.00
46876;BME280;32866;50.160;14.768;2023-02-10T08:58:41;101388.03;;;-0.84;100.00
46876;BME280;32866;50.160;14.768;2023-02-10T09:01:11;101430.06;;;-0.65;100.00
46876;BME280;32866;50.160;14.768;2023-02-10T09:03:37;101422.94;;;-1.01;100.00
46876;BME280;32866;50.160;14.768;2023-02-10T09:06:05;101447.19;;;-0.93;100.00
46876;BME280;32866;50.160;14.768;2023-02-10T09:08:45;101445.88;;;-1.04;100.00
46876;BME280;32866;50.160;14.768;2023-02-10T09:11:13;101448.03;;;-1.15;100.00
46876;BME280;32866;50.160;14.768;2023-02-10T09:13:38;101445.59;;;-1.25;100.00
46876;BME280;32866;50.160;14.768;2023-02-10T09:16:03;101435.31;;;-1.23;100.00
46876;BME280;32866;50.160;14.768;2023-02-10T09:18:29;101414.78;;;-1.41;100.00
46876;BME280;32866;50.160;14.768;2023-02-10T09:20:57;101430.19;;;-1.10;100.00
46876;BME280;32866;50.160;14.768;2023-02-10T09:23:22;101408.81;;;-1.07;100.00
46876;BME280;32866;50.160;14.768;2023-02-10T09:25:59;101429.09;;;-1.01;100.00
46876;BME280;32866;50.160;14.768;2023-02-10T09:28:25;101423.47;;;-0.90;100.00
46876;BME280;32866;50.160;14.768;2023-02-10T09:30:50;101385.56;;;-1.03;100.00
46876;BME280;32866;50.160;14.768;2023-02-10T09:33:16;101430.97;;;-0.79;100.00
46876;BME280;32866;50.160;14.768;2023-02-10T09:35:42;101411.00;;;-0.78;100.00
46876;BME280;32866;50.160;14.768;2023-02-10T09:38:09;101415.00;;;-0.66;100.00
46876;BME280;32866;50.160;14.768;2023-02-10T09:41:01;101400.47;;;-0.48;100.00
46876;BME280;32866;50.160;14.768;2023-02-10T09:46:23;101430.31;;;-0.01;100.00
46876;BME280;32866;50.160;14.768;2023-02-10T09:54:27;101424.63;;;-0.08;100.00
46876;BME280;32866;50.160;14.768;2023-02-10T09:57:00;101421.94;;;-0.08;100.00
46876;BME280;32866;50.160;14.768;2023-02-10T09:59:27;101422.00;;;-0.48;100.00
46876;BME280;32866;50.160;14.768;2023-02-10T10:01:57;101423.81;;;-0.26;100.00
46876;BME280;32866;50.160;14.768;2023-02-10T10:04:25;101413.31;;;-0.45;100.00
46876;BME280;32866;50.160;14.768;2023-02-10T10:07:04;101440.94;;;-0.13;100.00
46876;BME280;32866;50.160;14.768;2023-02-10T10:09:43;101408.25;;;-0.46;100.00
46876;BME280;32866;50.160;14.768;2023-02-10T10:12:18;101439.34;;;-0.14;100.00
46876;BME280;32866;50.160;14.768;2023-02-10T10:14:44;101441.88;;;-0.09;100.00
46876;BME280;32866;50.160;14.768;2023-02-10T10:22:36;101440.66;;;0.32;100.00
46876;BME280;32866;50.160;14.768;2023-02-10T10:27:59;101439.50;;;0.60;100.00
46876;BME280;32866;50.160;14.768;2023-02-10T10:33:20;101429.81;;;0.67;100.00
46876;BME280;32866;50.160;14.768;2023-02-10T10:35:50;101433.13;;;0.73;100.00
46876;BME280;32866;50.160;14.768;2023-02-10T10:38:24;101438.19;;;0.83;100.00
46876;BME280;32866;50.160;14.768;2023-02-10T10:40:55;101442.34;;;0.81;100.00
46876;BME280;32866;50.160;14.768;2023-02-10T10:43:26;101439.75;;;0.93;100.00
46876;BME280;32866;50.160;14.768;2023-02-10T10:45:59;101412.47;;;0.77;100.00
46876;BME280;32866;50.160;14.768;2023-02-10T10:48:30;101440.66;;;1.44;100.00
46876;BME280;32866;50.160;14.768;2023-02-10T10:51:01;101440.63;;;1.53;100.00
46876;BME280;32866;50.160;14.768;2023-02-10T10:53:47;101447.47;;;1.51;100.00
46876;BME280;32866;50.160;14.768;2023-02-10T10:56:34;101438.69;;;1.54;100.00
46876;BME280;32866;50.160;14.768;2023-02-10T10:59:02;101438.56;;;1.50;100.00
46876;BME280;32866;50.160;14.768;2023-02-10T11:01:38;101425.28;;;1.36;100.00
46876;BME280;32866;50.160;14.768;2023-02-10T11:04:15;101431.81;;;1.35;100.00
46876;BME280;32866;50.160;14.768;2023-02-10T11:06:43;101424.53;;;1.27;100.00
46876;BME280;32866;50.160;14.768;2023-02-10T11:09:34;101432.19;;;1.55;100.00
46876;BME280;32866;50.160;14.768;2023-02-10T11:12:03;101404.41;;;1.45;100.00
46876;BME280;32866;50.160;14.768;2023-02-10T11:14:37;101427.94;;;1.96;100.00
46876;BME280;32866;50.160;14.768;2023-02-10T11:17:35;101417.66;;;2.10;100.00
46876;BME280;32866;50.160;14.768;2023-02-10T11:22:36;101420.31;;;2.65;100.00
46876;BME280;32866;50.160;14.768;2023-02-10T11:25:21;101431.16;;;2.65;100.00
46876;BME280;32866;50.160;14.768;2023-02-10T11:27:50;101425.06;;;3.13;100.00
46876;BME280;32866;50.160;14.768;2023-02-10T11:30:29;101422.00;;;3.40;100.00
46876;BME280;32866;50.160;14.768;2023-02-10T11:32:56;101404.06;;;3.10;100.00
46876;BME280;32866;50.160;14.768;2023-02-10T11:35:22;101419.97;;;3.49;100.00
46876;BME280;32866;50.160;14.768;2023-02-10T11:37:54;101417.25;;;3.61;100.00
46876;BME280;32866;50.160;14.768;2023-02-10T11:40:23;101414.91;;;4.57;100.00
46876;BME280;32866;50.160;14.768;2023-02-10T11:42:51;101404.44;;;4.87;98.12
46876;BME280;32866;50.160;14.768;2023-02-10T11:50:26;101390.84;;;4.71;91.27
46876;BME280;32866;50.160;14.768;2023-02-10T11:52:52;101378.06;;;5.19;88.21
46876;BME280;32866;50.160;14.768;2023-02-10T11:55:18;101378.75;;;5.87;85.07
46876;BME280;32866;50.160;14.768;2023-02-10T12:01:11;101391.78;;;8.91;65.15
46876;BME280;32866;50.160;14.768;2023-02-10T12:26:26;101367.13;;;8.43;52.02
46876;BME280;32866;50.160;14.768;2023-02-10T12:32:22;101374.69;;;6.59;59.26
46876;BME280;32866;50.160;14.768;2023-02-10T12:37:36;101352.88;;;7.32;59.34
46876;BME280;32866;50.160;14.768;2023-02-10T12:53:37;101326.91;;;8.06;56.15
46876;BME280;32866;50.160;14.768;2023-02-10T12:58:46;101344.41;;;9.36;53.73
46876;BME280;32866;50.160;14.768;2023-02-10T13:03:43;101347.31;;;9.72;52.58
46876;BME280;32866;50.160;14.768;2023-02-10T13:06:20;101342.47;;;11.18;47.87
46876;BME280;32866;50.160;14.768;2023-02-10T13:08:53;101335.47;;;10.73;48.99
46876;BME280;32866;50.160;14.768;2023-02-10T13:11:41;101343.88;;;9.89;50.14
46876;BME280;32866;50.160;14.768;2023-02-10T13:14:14;101351.00;;;10.12;51.56
46876;BME280;32866;50.160;14.768;2023-02-10T13:16:50;101348.69;;;10.21;51.32
46876;BME280;32866;50.160;14.768;2023-02-10T13:25:14;101345.41;;;9.79;51.64
46876;BME280;32866;50.160;14.768;2023-02-10T13:30:23;101358.47;;;9.34;53.38
46876;BME280;32866;50.160;14.768;2023-02-10T13:33:04;101344.56;;;9.61;52.35
46876;BME280;32866;50.160;14.768;2023-02-10T13:35:37;101346.06;;;8.47;54.89
46876;BME280;32866;50.160;14.768;2023-02-10T13:38:08;101343.00;;;7.81;57.04
46876;BME280;32866;50.160;14.768;2023-02-10T13:40:45;101310.75;;;6.53;60.69
46876;BME280;32866;50.160;14.768;2023-02-10T13:43:38;101353.91;;;5.89;64.67
46876;BME280;32866;50.160;14.768;2023-02-10T13:46:04;101330.56;;;5.33;68.25
46876;BME280;32866;50.160;14.768;2023-02-10T13:48:34;101355.31;;;5.83;66.29
46876;BME280;32866;50.160;14.768;2023-02-10T13:51:03;101331.19;;;5.81;65.65
46876;BME280;32866;50.160;14.768;2023-02-10T13:58:32;101356.28;;;5.90;67.46
46876;BME280;32866;50.160;14.768;2023-02-10T14:00:58;101358.66;;;6.54;63.01
46876;BME280;32866;50.160;14.768;2023-02-10T14:03:30;101358.44;;;6.01;65.30
46876;BME280;32866;50.160;14.768;2023-02-10T14:05:57;101355.59;;;6.36;65.21
46876;BME280;32866;50.160;14.768;2023-02-10T14:11:39;101359.94;;;6.18;65.39
46876;BME280;32866;50.160;14.768;2023-02-10T14:14:29;101358.22;;;5.54;68.63
46876;BME280;32866;50.160;14.768;2023-02-10T14:17:14;101359.22;;;5.46;67.69
46876;BME280;32866;50.160;14.768;2023-02-10T14:19:48;101345.16;;;5.25;68.17
46876;BME280;32866;50.160;14.768;2023-02-10T14:25:00;101363.75;;;4.43;71.37
46876;BME280;32866;50.160;14.768;2023-02-10T14:27:27;101318.84;;;4.17;71.85
46876;BME280;32866;50.160;14.768;2023-02-10T14:30:11;101369.75;;;3.80;75.10
46876;BME280;32866;50.160;14.768;2023-02-10T14:32:44;101352.94;;;3.74;76.24
46876;BME280;32866;50.160;14.768;2023-02-10T14:35:19;101351.88;;;3.91;76.12
46876;BME280;32866;50.160;14.768;2023-02-10T14:37:50;101331.84;;;3.55;78.21
46876;BME280;32866;50.160;14.768;2023-02-10T14:40:17;101325.09;;;3.49;79.86
46876;BME280;32866;50.160;14.768;2023-02-10T14:42:43;101336.91;;;3.69;76.68